Time;durP1;ratioP1;P1;durP2;ratioP2;P2;SDS_P1;SDS_P2;PMS_P1;PMS_P2;Temp;Humidity;BMP_temperature;BMP_pressure;BME280_temperature;BME280_humidity;BME280_pressure;Samples;Min_cycle;Max_cycle;Signal;HPM_P1;HPM_P2
2023/09/07 00:01:31;;;;;;;7.13;5.70;;;16.10;99.90;;;;;;5011992;28;20302;-28
2023/09/07 00:03:57;;;;;;;5.60;5.10;;;16.10;99.90;;;;;;5012085;28;20199;-28
2023/09/07 00:06:23;;;;;;;6.17;5.50;;;16.10;99.90;;;;;;5011873;28;20183;-28
2023/09/07 00:08:49;;;;;;;6.53;5.57;;;16.00;99.90;;;;;;5012201;28;20176;-29
2023/09/07 00:11:14;;;;;;;6.20;5.20;;;16.00;99.90;;;;;;5011532;28;20199;-28
2023/09/07 00:13:40;;;;;;;5.40;4.80;;;16.00;99.90;;;;;;5012269;28;20199;-28
2023/09/07 00:16:07;;;;;;;9.17;5.20;;;16.00;99.90;;;;;;5011909;28;20192;-29
2023/09/07 00:18:33;;;;;;;6.20;5.33;;;16.00;99.90;;;;;;5012014;28;20187;-28
2023/09/07 00:21:00;;;;;;;6.93;5.00;;;16.00;99.90;;;;;;5011133;28;20203;-28
2023/09/07 00:23:26;;;;;;;6.13;4.80;;;15.90;99.90;;;;;;5010935;28;20210;-29
2023/09/07 00:25:52;;;;;;;7.13;4.90;;;15.90;99.90;;;;;;5011413;28;20179;-28
2023/09/07 00:28:17;;;;;;;5.93;5.07;;;15.80;99.90;;;;;;5011412;28;20187;-28
2023/09/07 00:30:43;;;;;;;6.17;5.07;;;15.80;99.90;;;;;;5023313;28;20202;-28
2023/09/07 00:33:10;;;;;;;8.27;5.20;;;15.80;99.90;;;;;;5041350;22;20240;-31
2023/09/07 00:35:36;;;;;;;5.63;4.83;;;15.70;99.90;;;;;;5031810;28;20178;-31
2023/09/07 00:38:03;;;;;;;5.80;5.27;;;15.70;99.90;;;;;;5015549;28;20177;-31
2023/09/07 00:40:30;;;;;;;6.10;5.40;;;15.70;99.90;;;;;;5031632;28;20207;-32
2023/09/07 00:42:56;;;;;;;6.00;5.40;;;15.70;99.90;;;;;;5031357;28;20178;-32
2023/09/07 00:45:22;;;;;;;7.27;6.23;;;15.60;99.90;;;;;;5031810;28;20206;-32
2023/09/07 00:47:48;;;;;;;5.60;5.10;;;15.60;99.90;;;;;;5031565;28;20174;-32
2023/09/07 00:50:16;;;;;;;5.93;5.10;;;15.60;99.90;;;;;;5039825;28;20228;-31
2023/09/07 00:52:43;;;;;;;6.10;5.23;;;15.50;99.90;;;;;;5014932;28;20208;-32
2023/09/07 00:55:09;;;;;;;6.23;5.30;;;15.40;99.90;;;;;;5031328;28;20177;-31
2023/09/07 00:57:36;;;;;;;5.80;5.20;;;15.30;99.90;;;;;;5039717;28;20171;-32
2023/09/07 01:00:07;;;;;;;5.53;5.03;;;15.30;99.90;;;;;;5014732;28;20175;-31
2023/09/07 01:02:34;;;;;;;5.63;4.80;;;15.20;99.90;;;;;;5015005;28;20237;-32
2023/09/07 01:05:02;;;;;;;6.50;5.27;;;15.20;99.90;;;;;;5015112;28;20211;-32
2023/09/07 01:07:41;;;;;;;7.20;5.70;;;15.20;99.90;;;;;;5014905;28;20241;-31
2023/09/07 01:10:08;;;;;;;5.37;4.87;;;15.10;99.90;;;;;;5014686;28;20269;-32
2023/09/07 01:12:34;;;;;;;6.10;5.50;;;15.10;99.90;;;;;;5014593;28;20186;-32
2023/09/07 01:15:01;;;;;;;5.67;5.07;;;15.00;99.90;;;;;;5014571;28;20273;-31
2023/09/07 01:17:27;;;;;;;5.83;5.23;;;15.00;99.90;;;;;;5014632;28;20182;-32
2023/09/07 01:19:56;;;;;;;9.83;5.60;;;15.00;99.90;;;;;;5010935;28;20217;-34
2023/09/07 01:22:23;;;;;;;8.50;5.50;;;15.00;99.90;;;;;;5029217;28;20248;-31
2023/09/07 01:24:51;;;;;;;5.67;5.17;;;15.00;99.90;;;;;;5014368;28;20202;-32
2023/09/07 01:27:18;;;;;;;5.67;5.13;;;15.00;99.90;;;;;;5014285;28;20248;-31
2023/09/07 01:29:43;;;;;;;5.80;5.30;;;14.90;99.90;;;;;;5014253;28;20217;-31
2023/09/07 01:32:10;;;;;;;6.70;5.23;;;14.90;99.90;;;;;;5013932;28;20219;-31
2023/09/07 01:34:37;;;;;;;5.90;5.37;;;14.90;99.90;;;;;;5013729;28;20210;-31
2023/09/07 01:37:03;;;;;;;5.73;5.07;;;14.90;99.90;;;;;;5012061;28;20178;-31
2023/09/07 01:39:29;;;;;;;5.90;5.20;;;14.90;99.90;;;;;;5047095;28;20170;-31
2023/09/07 01:41:54;;;;;;;6.87;5.30;;;14.90;99.90;;;;;;5014076;28;20268;-31
2023/09/07 01:44:20;;;;;;;6.37;5.30;;;14.90;99.90;;;;;;5014110;28;20201;-31
2023/09/07 01:46:46;;;;;;;6.43;4.97;;;14.80;99.90;;;;;;5013954;28;20178;-31
2023/09/07 01:49:12;;;;;;;8.30;5.17;;;14.80;99.90;;;;;;5014083;28;20185;-31
2023/09/07 01:51:37;;;;;;;5.43;4.90;;;14.80;99.90;;;;;;5013936;28;20179;-31
2023/09/07 01:54:05;;;;;;;6.03;5.40;;;14.80;99.90;;;;;;5013684;28;20194;-33
2023/09/07 01:56:31;;;;;;;6.43;5.37;;;14.70;99.90;;;;;;5013864;28;20209;-32
2023/09/07 01:58:57;;;;;;;6.23;5.03;;;14.70;99.90;;;;;;5014069;28;20217;-33
2023/09/07 02:01:29;;;;;;;6.03;5.07;;;14.70;99.90;;;;;;5014427;28;20202;-32
2023/09/07 02:03:56;;;;;;;5.80;5.20;;;14.60;99.90;;;;;;5013746;28;20194;-33
2023/09/07 02:06:22;;;;;;;5.40;4.90;;;14.60;99.90;;;;;;5029754;28;20178;-33
2023/09/07 02:08:48;;;;;;;8.37;5.97;;;14.50;99.90;;;;;;5030457;28;20181;-33
2023/09/07 02:11:14;;;;;;;6.70;5.43;;;14.50;99.90;;;;;;5013729;28;20185;-31
2023/09/07 02:13:45;;;;;;;6.10;5.50;;;14.60;99.90;;;;;;5013470;28;20210;-31
2023/09/07 02:16:11;;;;;;;8.00;5.70;;;14.50;99.90;;;;;;5013752;28;20297;-31
2023/09/07 02:18:39;;;;;;;6.23;5.40;;;14.50;99.90;;;;;;5013635;28;20171;-31
2023/09/07 02:21:06;;;;;;;7.23;5.20;;;14.50;99.90;;;;;;5013519;28;20210;-31
2023/09/07 02:23:32;;;;;;;6.07;5.50;;;14.50;99.90;;;;;;5013423;28;20198;-31
2023/09/07 02:25:59;;;;;;;5.90;5.30;;;14.40;99.90;;;;;;5013510;28;20207;-31
2023/09/07 02:28:25;;;;;;;6.30;5.10;;;14.50;99.90;;;;;;5030005;28;20182;-32
2023/09/07 02:30:52;;;;;;;5.60;5.00;;;14.40;99.90;;;;;;5013334;28;20186;-31
2023/09/07 02:33:18;;;;;;;5.50;5.00;;;14.50;99.90;;;;;;5012641;28;20218;-32
2023/09/07 02:35:44;;;;;;;6.70;5.23;;;14.50;99.90;;;;;;5013078;28;20269;-32
2023/09/07 02:38:10;;;;;;;7.50;5.30;;;14.40;99.90;;;;;;5013537;28;20186;-32
2023/09/07 02:40:43;;;;;;;6.53;5.30;;;14.40;99.90;;;;;;5013422;28;20259;-32
2023/09/07 02:43:10;;;;;;;5.97;4.73;;;14.40;99.90;;;;;;5013107;28;20234;-32
2023/09/07 02:45:36;;;;;;;6.33;4.90;;;14.30;99.90;;;;;;5013532;28;20186;-31
2023/09/07 02:48:03;;;;;;;5.60;5.10;;;14.30;99.90;;;;;;5013638;28;20178;-32
2023/09/07 02:50:32;;;;;;;7.20;5.70;;;14.20;99.90;;;;;;5013353;28;20174;-32
2023/09/07 02:52:58;;;;;;;6.60;5.30;;;14.20;99.90;;;;;;5012668;28;20186;-32
2023/09/07 02:55:24;;;;;;;5.93;5.00;;;14.20;99.90;;;;;;5013468;28;20293;-32
2023/09/07 02:57:51;;;;;;;6.70;5.93;;;14.20;99.90;;;;;;5013211;28;20187;-32
2023/09/07 03:00:17;;;;;;;6.33;5.17;;;14.10;99.90;;;;;;5011851;28;20183;-32
2023/09/07 03:02:44;;;;;;;7.00;5.47;;;14.10;99.90;;;;;;5013078;28;20171;-32
2023/09/07 03:05:11;;;;;;;6.27;5.67;;;14.10;99.90;;;;;;5013010;28;20179;-32
2023/09/07 03:07:39;;;;;;;6.77;5.37;;;14.10;99.90;;;;;;5029594;28;20175;-32
2023/09/07 03:10:05;;;;;;;5.53;4.93;;;14.10;99.90;;;;;;5013065;28;20179;-32
2023/09/07 03:12:31;;;;;;;6.53;5.83;;;14.10;99.90;;;;;;5012910;28;20175;-32
2023/09/07 03:14:57;;;;;;;6.47;5.20;;;14.10;99.90;;;;;;5013244;28;20213;-32
2023/09/07 03:17:23;;;;;;;6.23;5.63;;;14.10;99.90;;;;;;5013003;28;20183;-32
2023/09/07 03:19:49;;;;;;;6.30;5.63;;;14.00;99.90;;;;;;5029398;28;20204;-31
2023/09/07 03:22:15;;;;;;;7.77;5.13;;;13.90;99.90;;;;;;5029237;28;20210;-31
2023/09/07 03:24:41;;;;;;;6.00;5.30;;;13.90;99.90;;;;;;5012622;28;20203;-32
2023/09/07 03:27:07;;;;;;;7.10;6.40;;;13.90;99.90;;;;;;5013167;28;20174;-32
2023/09/07 03:29:33;;;;;;;5.20;4.70;;;13.90;99.90;;;;;;5013174;28;20170;-32
2023/09/07 03:32:00;;;;;;;7.43;5.20;;;13.80;99.90;;;;;;5013209;28;20178;-32
2023/09/07 03:34:26;;;;;;;5.80;5.10;;;13.80;99.90;;;;;;5012527;28;20257;-31
2023/09/07 03:36:52;;;;;;;6.43;5.83;;;13.80;99.90;;;;;;5012682;28;20189;-31
2023/09/07 03:39:22;;;;;;;6.03;5.13;;;13.70;99.90;;;;;;5029282;28;20194;-31
2023/09/07 03:41:48;;;;;;;6.53;5.50;;;13.70;99.90;;;;;;5012627;28;20207;-31
2023/09/07 03:44:14;;;;;;;7.80;5.20;;;13.70;99.90;;;;;;5013661;28;20303;-31
2023/09/07 03:46:40;;;;;;;7.50;5.73;;;13.70;99.90;;;;;;5016413;28;20255;-31
2023/09/07 03:49:06;;;;;;;5.77;5.27;;;13.60;99.90;;;;;;5016351;28;20167;-31
2023/09/07 03:51:32;;;;;;;6.10;5.50;;;13.60;99.90;;;;;;5016422;28;20175;-31
2023/09/07 03:53:59;;;;;;;6.03;5.43;;;13.60;99.90;;;;;;5016154;28;20201;-31
2023/09/07 03:56:25;;;;;;;6.53;5.83;;;13.60;99.90;;;;;;5015670;28;20225;-31
2023/09/07 03:58:51;;;;;;;7.00;5.00;;;13.60;99.90;;;;;;5015924;28;20206;-33
2023/09/07 04:01:17;;;;;;;6.77;5.77;;;13.50;99.90;;;;;;5015376;28;20695;-33
2023/09/07 04:03:43;;;;;;;6.77;5.30;;;13.50;99.90;;;;;;5011637;28;20229;-33
2023/09/07 04:06:09;;;;;;;7.23;5.53;;;13.50;99.90;;;;;;5049795;28;20189;-32
2023/09/07 04:08:35;;;;;;;5.70;5.07;;;13.40;99.90;;;;;;5017058;28;20190;-32
2023/09/07 04:11:05;;;;;;;8.77;5.93;;;13.40;99.90;;;;;;5016277;28;20182;-32
2023/09/07 04:13:31;;;;;;;6.07;5.47;;;13.40;99.90;;;;;;5016375;28;20237;-32
2023/09/07 04:15:59;;;;;;;6.80;5.40;;;13.40;99.90;;;;;;5015799;28;20179;-32
2023/09/07 04:18:25;;;;;;;7.20;5.90;;;13.40;99.90;;;;;;5015937;28;20189;-32
2023/09/07 04:20:51;;;;;;;9.23;5.30;;;13.30;99.90;;;;;;5015832;28;20198;-31
2023/09/07 04:23:17;;;;;;;6.40;5.33;;;13.30;99.90;;;;;;5015237;28;20210;-32
2023/09/07 04:25:43;;;;;;;6.93;5.83;;;13.20;99.90;;;;;;5016230;28;20205;-32
2023/09/07 04:28:11;;;;;;;6.57;5.70;;;13.20;99.90;;;;;;5016171;28;20179;-31
2023/09/07 04:30:38;;;;;;;6.57;5.90;;;13.10;99.90;;;;;;5015530;28;20193;-32
2023/09/07 04:33:04;;;;;;;6.93;5.83;;;13.10;99.90;;;;;;5015205;28;20193;-32
2023/09/07 04:35:31;;;;;;;6.53;5.93;;;13.10;99.90;;;;;;5015364;28;20186;-32
2023/09/07 04:37:57;;;;;;;7.63;5.90;;;13.10;99.90;;;;;;5015063;28;20182;-32
2023/09/07 04:40:24;;;;;;;6.93;6.07;;;13.10;99.90;;;;;;5015289;28;20186;-32
2023/09/07 04:42:51;;;;;;;6.73;6.03;;;13.00;99.90;;;;;;5015356;28;20179;-33
2023/09/07 04:45:17;;;;;;;8.97;5.90;;;13.00;99.90;;;;;;5015173;28;20268;-33
2023/09/07 04:47:44;;;;;;;8.77;5.97;;;13.10;99.90;;;;;;5014807;28;20237;-33
2023/09/07 04:50:10;;;;;;;6.40;5.80;;;13.10;99.90;;;;;;5014619;28;20213;-33
2023/09/07 04:52:36;;;;;;;6.97;5.90;;;13.00;99.90;;;;;;5031007;28;20179;-33
2023/09/07 04:55:03;;;;;;;6.23;5.57;;;13.00;99.90;;;;;;5015267;28;20254;-33
2023/09/07 04:57:30;;;;;;;9.83;6.07;;;13.00;99.90;;;;;;5014939;28;20305;-33
2023/09/07 04:59:56;;;;;;;8.77;6.50;;;13.00;99.90;;;;;;5015485;28;20184;-32
2023/09/07 05:02:22;;;;;;;7.50;6.33;;;13.00;99.90;;;;;;5014437;28;20213;-33
2023/09/07 05:04:50;;;;;;;7.37;5.73;;;12.90;99.90;;;;;;5014225;28;20204;-33
2023/09/07 05:07:16;;;;;;;6.50;5.90;;;12.90;99.90;;;;;;5014911;28;20265;-32
2023/09/07 05:09:42;;;;;;;6.03;5.43;;;12.90;99.90;;;;;;5014920;28;20229;-32
2023/09/07 05:12:08;;;;;;;7.90;5.83;;;13.00;99.90;;;;;;5014397;28;20249;-32
2023/09/07 05:14:34;;;;;;;7.73;6.23;;;13.00;99.90;;;;;;5014871;28;20289;-32
2023/09/07 05:17:00;;;;;;;6.57;5.97;;;13.00;99.90;;;;;;5015034;28;20320;-32
2023/09/07 05:19:26;;;;;;;6.70;6.00;;;13.00;99.90;;;;;;5015053;28;20200;-32
2023/09/07 05:21:52;;;;;;;6.60;5.60;;;13.00;99.90;;;;;;5014071;28;20206;-32
2023/09/07 05:24:17;;;;;;;7.47;5.50;;;13.10;99.90;;;;;;5014888;28;20195;-32
2023/09/07 05:26:43;;;;;;;5.90;5.30;;;13.10;99.90;;;;;;5030912;28;20177;-31
2023/09/07 05:29:11;;;;;;;6.53;5.30;;;13.20;99.90;;;;;;5014248;28;20179;-33
2023/09/07 05:31:37;;;;;;;6.30;5.60;;;13.20;99.90;;;;;;5013936;28;20182;-32
2023/09/07 05:34:03;;;;;;;6.63;5.70;;;13.30;99.90;;;;;;5014271;28;20226;-32
2023/09/07 05:36:29;;;;;;;5.53;5.03;;;13.20;99.90;;;;;;5014218;28;20205;-31
2023/09/07 05:38:55;;;;;;;6.10;5.20;;;13.20;99.90;;;;;;5014309;28;20208;-32
2023/09/07 05:41:21;;;;;;;7.33;5.53;;;13.30;99.90;;;;;;5013987;28;20744;-32
2023/09/07 05:43:48;;;;;;;6.70;5.80;;;13.40;99.90;;;;;;5013945;28;20219;-32
2023/09/07 05:46:14;;;;;;;5.87;5.37;;;13.40;99.90;;;;;;5013400;28;20505;-31
2023/09/07 05:48:40;;;;;;;6.03;5.43;;;13.50;99.90;;;;;;5013993;28;20239;-33
2023/09/07 05:51:06;;;;;;;8.33;5.57;;;13.50;99.90;;;;;;5014000;28;20182;-33
2023/09/07 05:53:32;;;;;;;6.20;5.53;;;13.60;99.90;;;;;;5013661;28;20198;-33
2023/09/07 05:55:58;;;;;;;7.27;5.40;;;13.70;99.90;;;;;;5013897;28;20588;-32
2023/09/07 05:58:24;;;;;;;6.77;6.07;;;13.80;99.90;;;;;;5014097;28;20179;-31
2023/09/07 06:00:50;;;;;;;6.73;6.00;;;13.90;99.90;;;;;;5013713;28;20205;-31
2023/09/07 06:03:16;;;;;;;7.40;5.90;;;14.00;99.90;;;;;;5013519;28;20251;-32
2023/09/07 06:05:42;;;;;;;8.13;5.93;;;14.10;99.90;;;;;;5029737;28;20265;-32
2023/09/07 06:08:09;;;;;;;6.77;6.07;;;14.20;99.90;;;;;;5013429;28;20179;-32
2023/09/07 06:10:36;;;;;;;7.63;6.10;;;14.30;99.90;;;;;;5013401;28;20290;-32
2023/09/07 06:13:03;;;;;;;6.70;5.30;;;14.30;99.90;;;;;;5013178;28;20216;-32
2023/09/07 06:15:29;;;;;;;8.03;6.13;;;14.40;99.90;;;;;;5045466;28;20280;-32
2023/09/07 06:17:55;;;;;;;7.67;6.00;;;14.50;99.90;;;;;;5013817;28;20337;-33
2023/09/07 06:20:21;;;;;;;6.67;5.63;;;14.60;99.90;;;;;;5013493;28;20269;-32
2023/09/07 06:22:49;;;;;;;9.87;5.87;;;14.70;99.90;;;;;;5013397;28;20178;-32
2023/09/07 06:25:15;;;;;;;9.80;6.07;;;14.70;99.90;;;;;;5013442;28;20214;-32
2023/09/07 06:27:41;;;;;;;6.53;5.87;;;14.80;99.90;;;;;;5013856;28;20183;-32
2023/09/07 06:30:08;;;;;;;6.50;5.90;;;15.00;99.90;;;;;;5013441;28;20266;-32
2023/09/07 06:32:35;;;;;;;7.17;6.43;;;15.10;99.90;;;;;;5013639;28;20206;-32
2023/09/07 06:35:02;;;;;;;7.50;6.40;;;15.20;99.90;;;;;;5040552;23;20273;-28
2023/09/07 06:37:28;;;;;;;7.30;5.90;;;15.30;99.90;;;;;;5012265;28;20189;-28
2023/09/07 06:39:54;;;;;;;8.50;5.67;;;15.30;99.90;;;;;;5017650;28;20183;-28
2023/09/07 06:42:19;;;;;;;9.73;6.17;;;15.40;99.90;;;;;;4993416;28;20345;-28
2023/09/07 06:44:52;;;;;;;7.80;5.93;;;15.50;99.90;;;;;;4994313;28;20470;-28
2023/09/07 06:47:18;;;;;;;5.93;5.37;;;15.60;99.90;;;;;;5009673;28;20186;-28
2023/09/07 06:49:43;;;;;;;7.80;6.33;;;15.60;99.90;;;;;;5010132;28;20183;-28
2023/09/07 06:52:09;;;;;;;6.77;6.07;;;15.70;99.90;;;;;;5009655;28;20197;-27
2023/09/07 06:54:38;;;;;;;7.83;6.70;;;15.80;99.90;;;;;;5009401;28;20207;-26
2023/09/07 06:57:08;;;;;;;6.37;5.60;;;15.90;99.90;;;;;;5009891;28;20183;-28
2023/09/07 06:59:34;;;;;;;7.73;5.80;;;16.00;99.90;;;;;;5008981;28;20187;-27
2023/09/07 07:02:00;;;;;;;6.13;5.53;;;16.00;99.90;;;;;;5009195;28;20203;-28
2023/09/07 07:04:27;;;;;;;7.03;6.40;;;16.20;99.90;;;;;;5009453;28;20203;-28
2023/09/07 07:06:54;;;;;;;6.27;5.63;;;16.20;99.90;;;;;;5009528;28;20183;-28
2023/09/07 07:09:20;;;;;;;9.80;6.07;;;16.30;99.90;;;;;;5009701;28;20185;-27
2023/09/07 07:11:46;;;;;;;7.67;5.70;;;16.40;99.90;;;;;;5009556;28;20191;-28
2023/09/07 07:14:12;;;;;;;10.00;5.70;;;16.50;99.90;;;;;;5009464;28;20250;-28
2023/09/07 07:16:38;;;;;;;6.73;6.00;;;16.60;99.90;;;;;;5009245;28;20183;-28
2023/09/07 07:19:04;;;;;;;6.93;6.07;;;16.70;99.90;;;;;;5010175;28;20184;-28
2023/09/07 07:21:29;;;;;;;8.90;6.07;;;16.80;99.90;;;;;;5012842;28;20247;-28
2023/09/07 07:23:55;;;;;;;6.47;5.87;;;16.90;99.90;;;;;;5013279;28;20195;-28
2023/09/07 07:26:22;;;;;;;6.95;6.32;;;16.90;99.90;;;;;;5013424;28;20179;-27
2023/09/07 07:28:49;;;;;;;7.33;6.50;;;17.00;99.90;;;;;;5013105;28;20190;-28
2023/09/07 07:31:14;;;;;;;7.97;6.65;;;17.10;99.90;;;;;;5012644;28;20190;-27
2023/09/07 07:33:47;;;;;;;8.52;6.30;;;17.10;99.90;;;;;;5012770;28;20210;-28
2023/09/07 07:36:16;;;;;;;6.88;5.90;;;17.20;99.90;;;;;;5027786;28;20215;-27
2023/09/07 07:38:42;;;;;;;8.07;6.45;;;17.30;99.90;;;;;;5013092;28;20187;-28
2023/09/07 07:41:07;;;;;;;7.13;5.50;;;17.40;99.90;;;;;;5012894;28;20230;-28
2023/09/07 07:43:33;;;;;;;6.53;5.78;;;17.50;99.90;;;;;;5012331;28;20310;-27
2023/09/07 07:45:59;;;;;;;6.75;5.68;;;17.60;99.90;;;;;;5013033;28;20186;-28
2023/09/07 07:48:28;;;;;;;6.80;6.10;;;17.80;99.90;;;;;;5013040;28;20179;-27
2023/09/07 07:50:54;;;;;;;6.93;5.95;;;17.90;99.90;;;;;;5012348;28;20207;-28
2023/09/07 07:53:20;;;;;;;6.75;6.03;;;18.10;99.90;;;;;;5012877;28;20259;-28
2023/09/07 07:55:48;;;;;;;6.72;6.03;;;18.20;99.90;;;;;;5012520;28;20206;-28
2023/09/07 07:58:16;;;;;;;7.45;5.75;;;18.40;99.90;;;;;;5012536;28;20193;-28
2023/09/07 08:00:47;;;;;;;6.47;5.78;;;18.50;99.90;;;;;;5012268;28;20207;-28
2023/09/07 08:03:13;;;;;;;5.72;5.13;;;18.50;99.90;;;;;;5012508;28;20205;-28
2023/09/07 08:05:39;;;;;;;7.97;5.47;;;18.60;99.90;;;;;;5012181;28;20194;-29
2023/09/07 08:08:07;;;;;;;5.95;5.20;;;18.70;99.90;;;;;;5012486;28;20187;-28
2023/09/07 08:10:37;;;;;;;6.40;5.18;;;18.90;99.90;;;;;;5012087;28;20271;-27
2023/09/07 08:13:04;;;;;;;6.00;5.40;;;19.00;99.90;;;;;;5028704;28;20265;-28
2023/09/07 08:15:33;;;;;;;6.20;5.07;;;19.20;99.90;;;;;;5012287;28;20214;-28
2023/09/07 08:18:00;;;;;;;6.57;5.68;;;19.40;99.90;;;;;;4992639;28;20204;-28
2023/09/07 08:20:26;;;;;;;6.15;5.55;;;19.40;99.90;;;;;;4992447;28;20184;-28
2023/09/07 08:22:53;;;;;;;5.82;5.13;;;19.50;99.90;;;;;;4992205;28;20172;-28
2023/09/07 08:25:20;;;;;;;6.57;5.68;;;19.70;99.90;;;;;;4991825;28;20200;-28
2023/09/07 08:27:47;;;;;;;6.90;5.57;;;19.80;99.90;;;;;;4991363;28;20275;-27
2023/09/07 08:30:18;;;;;;;5.82;4.63;;;20.00;99.90;;;;;;4992074;28;20267;-28
2023/09/07 08:32:45;;;;;;;7.95;6.03;;;20.10;99.90;;;;;;5017787;28;20187;-29
2023/09/07 08:35:16;;;;;;;7.38;5.32;;;20.30;99.90;;;;;;5011759;28;20226;-28
2023/09/07 08:37:42;;;;;;;5.93;5.20;;;20.40;99.90;;;;;;5011926;28;20191;-28
2023/09/07 08:40:11;;;;;;;5.97;5.38;;;20.60;99.90;;;;;;5012056;28;20279;-28
2023/09/07 08:42:37;;;;;;;6.60;5.60;;;20.60;99.90;;;;;;5011527;28;20210;-28
2023/09/07 08:45:06;;;;;;;6.25;5.65;;;20.70;99.90;;;;;;5011596;28;20200;-28
2023/09/07 08:47:37;;;;;;;6.38;5.70;;;20.90;99.90;;;;;;5011284;28;20234;-28
2023/09/07 08:50:08;;;;;;;5.47;4.95;;;21.00;99.90;;;;;;5011507;28;20215;-28
2023/09/07 08:52:35;;;;;;;6.18;5.55;;;21.10;99.90;;;;;;5011325;28;20295;-30
2023/09/07 08:55:04;;;;;;;7.32;5.75;;;21.30;99.90;;;;;;5011582;28;20203;-28
2023/09/07 08:57:31;;;;;;;5.90;5.38;;;21.20;99.90;;;;;;5011253;28;20191;-28
2023/09/07 08:59:57;;;;;;;7.40;5.90;;;21.40;99.90;;;;;;5010615;28;20326;-28
2023/09/07 09:02:23;;;;;;;5.55;4.88;;;21.50;99.90;;;;;;5011320;28;20290;-28
2023/09/07 09:04:50;;;;;;;5.85;5.35;;;21.70;99.90;;;;;;5011133;28;20350;-28
2023/09/07 09:07:16;;;;;;;5.63;5.10;;;21.90;99.90;;;;;;5011010;28;20210;-28
2023/09/07 09:09:42;;;;;;;6.05;5.47;;;22.10;99.90;;;;;;5012037;28;20222;-28
2023/09/07 09:12:11;;;;;;;5.18;4.78;;;22.20;99.90;;;;;;5018064;28;20183;-28
2023/09/07 09:14:37;;;;;;;5.90;4.80;;;22.40;99.90;;;;;;5011079;28;20203;-29
2023/09/07 09:17:03;;;;;;;5.57;4.90;;;22.50;99.90;;;;;;5011140;28;20213;-29
2023/09/07 09:19:33;;;;;;;7.40;5.38;;;22.70;99.90;;;;;;5010814;28;20187;-29
2023/09/07 09:22:00;;;;;;;5.55;4.95;;;22.90;99.90;;;;;;5018657;28;20214;-28
2023/09/07 09:24:26;;;;;;;5.00;4.50;;;23.00;99.90;;;;;;5011063;28;20196;-28
2023/09/07 09:26:52;;;;;;;5.72;5.15;;;23.20;99.90;;;;;;5010841;28;20190;-28
2023/09/07 09:29:23;;;;;;;5.63;4.80;;;23.30;99.90;;;;;;5010835;28;20180;-28
2023/09/07 09:31:49;;;;;;;5.75;5.25;;;23.50;99.90;;;;;;5010458;28;20188;-29
2023/09/07 09:34:15;;;;;;;5.35;4.90;;;23.60;99.90;;;;;;5010296;28;20322;-29
2023/09/07 09:36:43;;;;;;;9.18;5.60;;;23.60;99.90;;;;;;5010576;28;20270;-28
2023/09/07 09:39:09;;;;;;;5.03;4.53;;;23.60;99.90;;;;;;5010456;28;20179;-29
2023/09/07 09:41:35;;;;;;;7.43;5.30;;;23.70;99.90;;;;;;5009140;28;20207;-29
2023/09/07 09:44:03;;;;;;;6.40;5.38;;;23.90;99.90;;;;;;5008605;28;20286;-30
2023/09/07 09:46:32;;;;;;;7.72;5.05;;;24.10;99.90;;;;;;5010487;28;20237;-29
2023/09/07 09:48:59;;;;;;;5.65;4.88;;;24.10;99.90;;;;;;5010495;28;20187;-29
2023/09/07 09:51:25;;;;;;;5.20;4.70;;;24.30;99.90;;;;;;5010038;28;20218;-29
2023/09/07 09:53:53;;;;;;;5.55;5.05;;;24.30;99.90;;;;;;5009589;28;20238;-29
2023/09/07 09:56:20;;;;;;;6.05;5.30;;;24.40;99.90;;;;;;5010071;28;20237;-29
2023/09/07 09:58:46;;;;;;;5.70;4.70;;;24.50;99.90;;;;;;5010433;28;20191;-29
2023/09/07 10:01:14;;;;;;;8.98;4.88;;;24.70;99.90;;;;;;5009888;28;20230;-29
2023/09/07 10:03:47;;;;;;;5.60;4.55;;;24.90;99.90;;;;;;5010105;28;20241;-30
2023/09/07 10:06:20;;;;;;;5.40;4.75;;;25.10;99.90;;;;;;5009359;28;20187;-29
2023/09/07 10:09:01;;;;;;;6.00;5.03;;;25.30;99.90;;;;;;5010153;28;20203;-30
2023/09/07 10:11:38;;;;;;;5.20;4.70;;;25.40;99.90;;;;;;5009346;28;20190;-30
2023/09/07 10:14:05;;;;;;;4.72;4.32;;;25.60;99.90;;;;;;5009998;28;20249;-29
2023/09/07 10:16:46;;;;;;;6.45;5.50;;;25.70;99.90;;;;;;5009929;28;20275;-30
2023/09/07 10:19:22;;;;;;;5.57;5.00;;;25.50;99.90;;;;;;5002593;28;20186;-30
2023/09/07 10:21:49;;;;;;;5.68;5.18;;;25.60;99.90;;;;;;5008388;28;20221;-30
2023/09/07 10:24:29;;;;;;;6.43;4.90;;;25.70;99.90;;;;;;5026613;28;20282;-28
2023/09/07 10:27:02;;;;;;;5.60;5.10;;;25.70;99.90;;;;;;5009885;28;20175;-29
2023/09/07 10:29:28;;;;;;;5.95;5.40;;;26.00;99.90;;;;;;5009915;28;20202;-29
2023/09/07 10:31:54;;;;;;;5.65;4.88;;;26.00;99.90;;;;;;5009622;28;20214;-29
2023/09/07 10:34:22;;;;;;;5.78;5.18;;;26.10;99.90;;;;;;5009669;28;20246;-29
2023/09/07 10:36:51;;;;;;;10.02;4.80;;;26.20;99.90;;;;;;5010601;28;20187;-29
2023/09/07 10:39:16;;;;;;;5.80;5.00;;;26.40;99.90;;;;;;5009416;28;20183;-29
2023/09/07 10:41:43;;;;;;;4.95;4.53;;;26.50;99.90;;;;;;5008816;28;20211;-30
2023/09/07 10:44:13;;;;;;;5.88;5.38;;;26.60;99.90;;;;;;5009696;28;20233;-29
2023/09/07 10:46:40;;;;;;;5.47;4.90;;;26.60;99.90;;;;;;5009648;28;20238;-29
2023/09/07 10:49:11;;;;;;;5.10;4.60;;;26.50;99.90;;;;;;5009568;28;20179;-29
2023/09/07 10:51:45;;;;;;;5.70;4.93;;;26.70;99.90;;;;;;5009446;28;20269;-30
2023/09/07 10:54:31;;;;;;;5.30;4.78;;;26.60;99.90;;;;;;5004377;28;20218;-29
2023/09/07 10:57:08;;;;;;;8.77;5.10;;;26.70;99.90;;;;;;4997069;28;20195;-29
2023/09/07 10:59:34;;;;;;;5.50;5.10;;;26.90;99.90;;;;;;5013706;28;20205;-29
2023/09/07 11:02:06;;;;;;;6.40;5.22;;;26.90;99.90;;;;;;5011474;28;20214;-29
2023/09/07 11:04:32;;;;;;;5.63;5.03;;;27.00;99.90;;;;;;5012263;28;20206;-30
2023/09/07 11:06:58;;;;;;;5.35;4.85;;;27.20;99.90;;;;;;5013548;28;20183;-30
2023/09/07 11:09:24;;;;;;;5.57;5.18;;;27.40;99.90;;;;;;5013329;28;20190;-30
2023/09/07 11:11:50;;;;;;;7.07;5.15;;;27.40;99.90;;;;;;5013199;28;20187;-29
2023/09/07 11:14:16;;;;;;;5.25;4.78;;;27.50;99.90;;;;;;5013452;28;20218;-29
2023/09/07 11:16:43;;;;;;;7.10;5.20;;;27.50;99.90;;;;;;5012796;28;20302;-29
2023/09/07 11:19:09;;;;;;;5.80;5.30;;;27.70;99.90;;;;;;5021412;28;20190;-29
2023/09/07 11:21:35;;;;;;;5.90;5.30;;;27.80;99.90;;;;;;5012811;28;20203;-29
2023/09/07 11:24:04;;;;;;;5.78;5.07;;;28.00;99.90;;;;;;5029324;28;20296;-29
2023/09/07 11:26:44;;;;;;;5.60;4.82;;;28.20;99.90;;;;;;5012758;28;20194;-30
2023/09/07 11:29:09;;;;;;;5.72;5.22;;;28.40;99.90;;;;;;5012843;28;20183;-30
2023/09/07 11:31:35;;;;;;;4.88;4.57;;;28.40;99.90;;;;;;5012737;28;20182;-30
2023/09/07 11:34:01;;;;;;;5.70;5.20;;;28.50;99.90;;;;;;5012804;28;20262;-29
2023/09/07 11:36:27;;;;;;;5.25;4.75;;;28.60;99.90;;;;;;5012938;28;20191;-30
2023/09/07 11:38:53;;;;;;;5.20;4.80;;;28.70;99.90;;;;;;5012610;28;20684;-30
2023/09/07 11:41:19;;;;;;;5.85;5.25;;;28.90;99.90;;;;;;5012305;28;20225;-29
2023/09/07 11:43:45;;;;;;;6.28;5.68;;;29.00;99.90;;;;;;5013028;28;20195;-30
2023/09/07 11:46:11;;;;;;;6.22;5.07;;;29.10;99.90;;;;;;5012873;28;20218;-30
2023/09/07 11:48:37;;;;;;;6.60;5.32;;;29.10;99.90;;;;;;5012910;28;20229;-30
2023/09/07 11:51:03;;;;;;;6.68;5.47;;;29.30;99.90;;;;;;5028782;28;20183;-30
2023/09/07 11:53:29;;;;;;;5.63;5.05;;;29.30;99.90;;;;;;5020559;28;20211;-29
2023/09/07 11:55:56;;;;;;;6.13;5.53;;;29.20;99.90;;;;;;5029050;28;20187;-29
2023/09/07 11:58:22;;;;;;;5.90;5.25;;;29.30;99.90;;;;;;5012623;28;20190;-30
2023/09/07 12:00:47;;;;;;;6.07;5.50;;;29.40;99.90;;;;;;5011778;28;20187;-30
2023/09/07 12:03:13;;;;;;;5.25;4.85;;;29.60;99.90;;;;;;5012551;28;20236;-29
2023/09/07 12:05:41;;;;;;;6.63;5.25;;;29.70;99.90;;;;;;5011229;28;20179;-31
2023/09/07 12:08:07;;;;;;;5.43;4.93;;;29.90;99.90;;;;;;5012158;28;20183;-29
2023/09/07 12:10:33;;;;;;;6.28;5.68;;;30.00;99.90;;;;;;5012192;28;20202;-30
2023/09/07 12:12:59;;;;;;;5.65;5.15;;;30.10;99.90;;;;;;5011860;28;20176;-30
2023/09/07 12:15:25;;;;;;;5.53;5.03;;;30.10;99.90;;;;;;5012232;28;20183;-29
2023/09/07 12:17:54;;;;;;;7.22;5.47;;;30.30;99.90;;;;;;5011878;28;20190;-29
2023/09/07 12:20:21;;;;;;;5.75;5.07;;;30.30;99.90;;;;;;5012525;28;20270;-29
2023/09/07 12:22:47;;;;;;;6.03;5.45;;;30.40;99.90;;;;;;5011886;28;20218;-30
2023/09/07 12:25:12;;;;;;;6.35;5.75;;;30.20;99.90;;;;;;5011964;28;20210;-30
2023/09/07 12:27:38;;;;;;;5.25;4.63;;;30.10;99.90;;;;;;5011923;28;20202;-30
2023/09/07 12:30:08;;;;;;;6.30;5.05;;;30.30;99.90;;;;;;5011213;28;20186;-30
2023/09/07 12:32:34;;;;;;;5.40;4.90;;;30.40;99.90;;;;;;5011432;28;20190;-30
2023/09/07 12:35:00;;;;;;;5.57;5.13;;;30.60;99.90;;;;;;5012226;28;20215;-30
2023/09/07 12:37:25;;;;;;;6.18;5.57;;;30.70;99.90;;;;;;5011709;28;20194;-30
2023/09/07 12:39:51;;;;;;;5.65;5.03;;;30.80;99.90;;;;;;5011577;28;20211;-31
2023/09/07 12:42:18;;;;;;;6.65;4.72;;;31.00;99.90;;;;;;5011310;28;20294;-30
2023/09/07 12:44:44;;;;;;;5.50;5.00;;;31.20;99.90;;;;;;5011693;28;20235;-31
2023/09/07 12:47:10;;;;;;;5.97;4.93;;;31.30;99.90;;;;;;5011623;28;20183;-31